createdAt,value
2018-04-23T00:00:49.400Z,111748.16
2018-04-23T00:03:15.117Z,111748.16
2018-04-23T00:05:40.869Z,111748.16
2018-04-23T00:08:06.601Z,111748.16
2018-04-23T00:10:32.348Z,111748.16
2018-04-23T00:12:58.080Z,111748.16
2018-04-23T00:15:23.804Z,111748.16
2018-04-23T00:17:49.519Z,111748.16
2018-04-23T00:20:15.252Z,111748.16
2018-04-23T00:22:40.991Z,111748.16
2018-04-23T00:25:06.711Z,111748.16
2018-04-23T00:27:32.456Z,111748.16
2018-04-23T00:29:58.180Z,111748.16
2018-04-23T00:32:23.928Z,111748.16
2018-04-23T00:34:49.669Z,111748.16
2018-04-23T00:37:15.406Z,111748.16
2018-04-23T00:39:41.184Z,111748.16
2018-04-23T00:42:06.872Z,111748.16
2018-04-23T00:44:32.605Z,111748.16
2018-04-23T00:46:58.348Z,111748.16
2018-04-23T00:49:24.076Z,111748.16
2018-04-23T00:51:49.820Z,111748.16
2018-04-23T00:54:15.543Z,111748.16
2018-04-23T00:56:41.307Z,111748.16
2018-04-23T00:59:07.040Z,111748.16
2018-04-23T01:01:32.782Z,111748.16
2018-04-23T01:03:58.504Z,111748.16
2018-04-23T01:06:24.253Z,111748.16
2018-04-23T01:08:49.987Z,111748.16
2018-04-23T01:11:15.725Z,111748.16
2018-04-23T01:13:41.455Z,111748.16
2018-04-23T01:16:07.192Z,111748.16
2018-04-23T01:18:32.933Z,111748.16
2018-04-23T01:20:58.683Z,111748.16
2018-04-23T01:23:24.444Z,111748.16
2018-04-23T01:25:50.192Z,111748.16
2018-04-23T01:28:15.929Z,111748.16
2018-04-23T01:30:41.682Z,111748.16
2018-04-23T01:33:07.415Z,111748.16
2018-04-23T01:35:33.157Z,111748.16
2018-04-23T01:37:58.924Z,111748.16
2018-04-23T01:40:24.666Z,111748.16
2018-04-23T01:42:50.405Z,111748.16
2018-04-23T01:45:16.134Z,111748.16
2018-04-23T01:47:41.884Z,111748.16
2018-04-23T01:50:07.628Z,111748.16
2018-04-23T01:52:33.392Z,111748.16
2018-04-23T01:54:59.128Z,111748.16
2018-04-23T01:57:24.866Z,111748.16
2018-04-23T01:59:50.587Z,111748.16
2018-04-23T02:02:16.324Z,111748.16
2018-04-23T02:04:42.051Z,111748.16
2018-04-23T02:07:07.781Z,111748.16
2018-04-23T02:09:33.514Z,111748.16
2018-04-23T02:11:59.256Z,111748.16
2018-04-23T02:14:24.987Z,111748.16
2018-04-23T02:16:50.720Z,111748.16
2018-04-23T02:19:16.452Z,111748.16
2018-04-23T02:21:42.175Z,111748.16
2018-04-23T02:24:07.896Z,111748.16
2018-04-23T02:26:33.647Z,111748.16
2018-04-23T02:28:59.389Z,111748.16
2018-04-23T02:31:25.112Z,111748.16
2018-04-23T02:33:50.843Z,111748.16
2018-04-23T02:36:16.600Z,111748.16
2018-04-23T02:38:42.316Z,111748.16
2018-04-23T02:41:08.041Z,111748.16
2018-04-23T02:43:33.771Z,111748.16
2018-04-23T02:45:59.510Z,111748.16
2018-04-23T02:48:25.257Z,111748.16
2018-04-23T02:50:51.041Z,111748.16
2018-04-23T02:53:16.807Z,111748.16
2018-04-23T02:55:42.525Z,111748.16
2018-04-23T02:58:08.284Z,111748.16
2018-04-23T03:00:34.057Z,111748.16
2018-04-23T03:02:59.798Z,111748.16
2018-04-23T03:05:25.540Z,111748.16
2018-04-23T03:07:51.273Z,111748.16
2018-04-23T03:10:17.004Z,111748.16
2018-04-23T03:12:42.749Z,111748.16
2018-04-23T03:15:08.501Z,111748.16
2018-04-23T03:17:34.279Z,111748.16
2018-04-23T03:20:00.017Z,111748.16
2018-04-23T03:22:25.769Z,111748.16
2018-04-23T03:24:51.518Z,111748.16
2018-04-23T03:27:17.264Z,111748.16
2018-04-23T03:29:42.988Z,111748.16
2018-04-23T03:32:08.727Z,111748.16
2018-04-23T03:34:34.456Z,111748.16
2018-04-23T03:37:00.193Z,111748.16
2018-04-23T03:39:25.930Z,111748.16
2018-04-23T03:41:51.687Z,111748.16
2018-04-23T03:44:17.417Z,111748.16
2018-04-23T03:46:43.152Z,111748.16
2018-04-23T03:49:08.888Z,111748.16
2018-04-23T03:51:34.624Z,111748.16
2018-04-23T03:54:00.386Z,111748.16
2018-04-23T03:56:26.112Z,111748.16
2018-04-23T03:58:51.877Z,111748.16
2018-04-23T04:01:17.616Z,111748.16
2018-04-23T04:03:43.375Z,111748.16
2018-04-23T04:07:45.829Z,100486.89
2018-04-23T04:10:11.557Z,100489.31
2018-04-23T04:12:49.644Z,100498.80
2018-04-23T04:18:38.385Z,100489.83
2018-04-23T04:21:04.128Z,100489.44
2018-04-23T04:23:29.882Z,100493.00
2018-04-23T04:25:55.617Z,100492.75
2018-04-23T04:28:21.365Z,100498.91
2018-04-23T04:30:47.119Z,100495.31
2018-04-23T04:33:12.869Z,100507.28
2018-04-23T04:35:38.673Z,100503.72
2018-04-23T04:38:04.358Z,100498.80
2018-04-23T04:40:30.095Z,100501.31
2018-04-23T04:42:55.832Z,100502.15
2018-04-23T04:45:21.559Z,100503.01
2018-04-23T04:47:47.308Z,100505.11
2018-04-23T04:50:13.078Z,100505.94
2018-04-23T04:52:38.840Z,100506.31
2018-04-23T04:55:04.588Z,100508.66
2018-04-23T04:57:30.337Z,100512.17
2018-04-23T04:59:56.076Z,100504.27
2018-04-23T05:02:21.804Z,100511.74
2018-04-23T05:04:47.553Z,100529.38
2018-04-23T05:07:13.301Z,100529.33
2018-04-23T05:09:39.072Z,100525.28
2018-04-23T05:12:04.817Z,100522.13
2018-04-23T05:14:30.581Z,100529.20
2018-04-23T05:16:56.321Z,100535.71
2018-04-23T05:19:22.078Z,100541.40
2018-04-23T05:21:47.819Z,100539.44
2018-04-23T05:24:13.557Z,100539.30
2018-04-23T05:26:39.297Z,100542.70
2018-04-23T05:29:05.045Z,100553.66
2018-04-23T05:31:30.776Z,100555.44
2018-04-23T05:33:56.699Z,100563.41
2018-04-23T05:36:22.427Z,100566.88
2018-04-23T05:38:48.173Z,100569.92
2018-04-23T05:41:13.918Z,100571.30
2018-04-23T05:43:39.662Z,100569.80
2018-04-23T05:46:05.388Z,100577.36
2018-04-23T05:48:31.138Z,100575.16
2018-04-23T05:50:56.880Z,100584.83
2018-04-23T05:53:22.652Z,100581.46
2018-04-23T05:55:48.388Z,100590.13
2018-04-23T05:58:14.120Z,100594.09
2018-04-23T06:00:39.892Z,100603.78
2018-04-23T06:03:05.658Z,100605.67
2018-04-23T06:05:31.393Z,100612.31
2018-04-23T06:07:57.132Z,100620.23
2018-04-23T06:10:22.883Z,100621.03
2018-04-23T06:12:48.615Z,100624.83
2018-04-23T06:15:14.360Z,100621.48
2018-04-23T06:17:40.121Z,100628.25
2018-04-23T06:20:05.874Z,100636.84
2018-04-23T06:22:31.608Z,100642.16
2018-04-23T06:24:57.354Z,100647.11
2018-04-23T06:27:23.084Z,100647.48
2018-04-23T06:29:48.823Z,100654.17
2018-04-23T06:32:14.556Z,100657.60
2018-04-23T06:34:47.133Z,100651.39
2018-04-23T06:37:12.868Z,100664.03
2018-04-23T06:39:38.604Z,100664.98
2018-04-23T06:42:04.370Z,100671.17
2018-04-23T06:44:30.123Z,100673.70
2018-04-23T06:46:55.854Z,100681.47
2018-04-23T06:49:21.632Z,100681.52
2018-04-23T06:51:47.356Z,100685.77
2018-04-23T06:54:13.111Z,100684.36
2018-04-23T06:56:38.844Z,100684.98
2018-04-23T06:59:04.627Z,100683.98
2018-04-23T07:01:30.336Z,100686.48
2018-04-23T07:03:56.093Z,100690.56
2018-04-23T07:06:21.848Z,100697.87
2018-04-23T07:08:47.593Z,100694.16
2018-04-23T07:11:13.335Z,100699.98
2018-04-23T07:13:39.057Z,100698.95
2018-04-23T07:16:04.807Z,100698.00
2018-04-23T07:18:30.548Z,100696.81
2018-04-23T07:20:56.287Z,100704.06
2018-04-23T07:23:22.024Z,100701.73
2018-04-23T07:25:47.761Z,100702.09
2018-04-23T07:28:13.505Z,100702.88
2018-04-23T07:30:39.242Z,100701.34
2018-04-23T07:33:04.984Z,100707.36
2018-04-23T07:35:30.726Z,100713.10
2018-04-23T07:37:56.488Z,100719.99
2018-04-23T07:40:22.239Z,100723.48
2018-04-23T07:42:47.984Z,100723.99
2018-04-23T07:45:13.737Z,100727.84
2018-04-23T07:47:39.476Z,100741.48
2018-04-23T07:50:05.236Z,100743.29
2018-04-23T07:52:30.996Z,100743.74
2018-04-23T07:54:56.745Z,100747.32
2018-04-23T07:57:22.486Z,100751.17
2018-04-23T07:59:48.232Z,100755.23
2018-04-23T08:02:13.961Z,100754.78
2018-04-23T08:04:39.739Z,100761.94
2018-04-23T08:07:05.475Z,100758.91
2018-04-23T08:09:31.231Z,100761.41
2018-04-23T08:11:56.976Z,100762.47
2018-04-23T08:14:22.716Z,100767.92
2018-04-23T08:16:48.461Z,100764.63
2018-04-23T08:19:14.180Z,100765.27
2018-04-23T08:21:39.952Z,100771.67
2018-04-23T08:24:05.684Z,100779.20
2018-04-23T08:26:31.428Z,100778.06
2018-04-23T08:28:57.161Z,100786.80
2018-04-23T08:31:22.900Z,100791.58
2018-04-23T08:33:48.641Z,100800.14
2018-04-23T08:36:14.364Z,100808.67
2018-04-23T08:38:40.095Z,100804.48
2018-04-23T08:41:05.855Z,100808.60
2018-04-23T08:43:31.597Z,100810.45
2018-04-23T08:45:57.356Z,100811.30
2018-04-23T08:48:23.096Z,100829.34
2018-04-23T08:50:48.844Z,100821.34
2018-04-23T08:53:14.585Z,100824.28
2018-04-23T08:55:40.399Z,100827.33
2018-04-23T08:58:06.095Z,100830.85
2018-04-23T09:00:31.831Z,100832.09
2018-04-23T09:02:57.571Z,100838.66
2018-04-23T09:05:23.329Z,100839.08
2018-04-23T09:07:49.073Z,100843.61
2018-04-23T09:10:14.817Z,100845.04
2018-04-23T09:12:40.565Z,100861.20
2018-04-23T09:15:06.324Z,100855.85
2018-04-23T09:17:32.064Z,100861.86
2018-04-23T09:19:57.796Z,100863.73
2018-04-23T09:22:23.544Z,100868.71
2018-04-23T09:24:49.352Z,100864.08
2018-04-23T09:27:15.034Z,100867.72
2018-04-23T09:29:40.784Z,100861.45
2018-04-23T09:32:06.545Z,100871.95
2018-04-23T09:34:32.276Z,100867.63
2018-04-23T09:36:58.008Z,100874.30
2018-04-23T09:39:23.739Z,100879.62
2018-04-23T09:41:49.497Z,100874.42
2018-04-23T09:44:15.228Z,100876.57
2018-04-23T09:46:40.971Z,100884.59
2018-04-23T09:49:06.723Z,100891.70
2018-04-23T09:51:32.473Z,100897.84
2018-04-23T09:53:58.225Z,100900.55
2018-04-23T09:56:23.980Z,100899.78
2018-04-23T09:58:49.719Z,100908.25
2018-04-23T10:01:19.543Z,100904.56
2018-04-23T10:03:50.109Z,100909.75
2018-04-23T10:06:15.872Z,100904.42
2018-04-23T10:08:41.608Z,100908.16
2018-04-23T10:11:07.348Z,100899.98
2018-04-23T10:13:33.086Z,100908.08
2018-04-23T10:15:58.827Z,100909.47
2018-04-23T10:18:24.580Z,100909.72
2018-04-23T10:20:50.321Z,100906.72
2018-04-23T10:23:16.077Z,100911.02
2018-04-23T10:25:41.856Z,100918.64
2018-04-23T10:28:07.606Z,100919.69
2018-04-23T10:30:33.332Z,100922.41
2018-04-23T10:32:59.087Z,100913.60
2018-04-23T10:35:24.815Z,100920.55
2018-04-23T10:37:50.573Z,100930.95
2018-04-23T10:40:16.316Z,100921.33
2018-04-23T10:42:42.056Z,100928.12
2018-04-23T10:45:07.788Z,100919.67
2018-04-23T10:50:09.756Z,100935.25
2018-04-23T10:52:35.516Z,100934.30
2018-04-23T10:55:01.253Z,100933.48
2018-04-23T10:57:27.009Z,100933.56
2018-04-23T10:59:52.751Z,100929.06
2018-04-23T11:02:18.501Z,100944.02
2018-04-23T11:04:44.241Z,100943.11
2018-04-23T11:07:09.989Z,100925.55
2018-04-23T11:09:35.738Z,100936.88
2018-04-23T11:12:01.497Z,100934.90
2018-04-23T11:14:27.234Z,100943.64
2018-04-23T11:16:52.972Z,100939.93
2018-04-23T11:19:18.696Z,100927.44
2018-04-23T11:21:44.453Z,100933.83
2018-04-23T11:24:10.192Z,100921.35
2018-04-23T11:26:35.932Z,100929.40
2018-04-23T11:29:01.674Z,100939.91
2018-04-23T11:31:27.417Z,100946.23
2018-04-23T11:33:53.164Z,100954.03
2018-04-23T11:36:18.920Z,100954.39
2018-04-23T11:38:44.663Z,100953.85
2018-04-23T11:41:10.409Z,100963.08
2018-04-23T11:43:36.143Z,100965.67
2018-04-23T11:46:01.884Z,100951.34
2018-04-23T11:48:27.624Z,100955.22
2018-04-23T11:50:53.367Z,100963.73
2018-04-23T11:53:19.128Z,100958.02
2018-04-23T11:55:44.870Z,100961.85
2018-04-23T11:58:10.608Z,100959.53
2018-04-23T12:00:36.352Z,100968.20
2018-04-23T12:03:02.109Z,100977.30
2018-04-23T12:05:27.854Z,100980.48
2018-04-23T12:07:53.604Z,100967.74
2018-04-23T12:10:19.352Z,100977.25
2018-04-23T12:12:45.094Z,100979.11
2018-04-23T12:15:10.833Z,100983.02
2018-04-23T12:17:36.592Z,100977.91
2018-04-23T12:20:02.354Z,100979.59
2018-04-23T12:22:28.108Z,100972.16
2018-04-23T12:24:53.852Z,100976.95
2018-04-23T12:27:19.597Z,100991.50
2018-04-23T12:29:45.349Z,100983.58
2018-04-23T12:32:11.094Z,100977.25
2018-04-23T12:34:36.840Z,100984.18
2018-04-23T12:37:02.603Z,100990.16
2018-04-23T12:39:28.354Z,100984.97
2018-04-23T12:41:54.158Z,100994.92
2018-04-23T12:44:19.901Z,100989.36
2018-04-23T12:46:45.640Z,100993.26
2018-04-23T12:49:11.399Z,100981.18
2018-04-23T12:51:37.137Z,100990.63
2018-04-23T12:54:02.897Z,100988.20
2018-04-23T12:56:28.632Z,100992.17
2018-04-23T12:58:54.372Z,100982.94
2018-04-23T13:01:20.096Z,100992.67
2018-04-23T13:03:45.840Z,100979.87
2018-04-23T13:06:11.580Z,100991.52
2018-04-23T13:08:37.319Z,100995.56
2018-04-23T13:11:03.062Z,100993.41
2018-04-23T13:13:28.809Z,100985.09
2018-04-23T13:15:54.543Z,101003.81
2018-04-23T13:18:20.309Z,100979.69
2018-04-23T13:20:46.059Z,101000.34
2018-04-23T13:23:11.827Z,100989.83
2018-04-23T13:25:37.596Z,100993.59
2018-04-23T13:28:03.347Z,100998.12
2018-04-23T13:30:29.091Z,100990.98
2018-04-23T13:32:54.838Z,100993.50
2018-04-23T13:35:20.573Z,100994.55
2018-04-23T13:37:46.325Z,100992.11
2018-04-23T13:40:12.061Z,100996.42
2018-04-23T13:42:37.840Z,100996.12
2018-04-23T13:45:03.556Z,101004.07
2018-04-23T13:47:29.304Z,100994.13
2018-04-23T13:49:55.040Z,101000.49
2018-04-23T13:52:20.788Z,100998.62
2018-04-23T13:54:46.547Z,101002.95
2018-04-23T13:57:12.286Z,101001.06
2018-04-23T13:59:38.041Z,100987.11
2018-04-23T14:02:03.783Z,100992.22
2018-04-23T14:04:29.519Z,100988.88
2018-04-23T14:06:55.296Z,100985.20
2018-04-23T14:09:21.024Z,100990.64
2018-04-23T14:11:46.778Z,100993.47
2018-04-23T14:14:12.530Z,100993.08
2018-04-23T14:16:38.265Z,100996.78
2018-04-23T14:19:04.025Z,101001.44
2018-04-23T14:21:29.764Z,100989.91
2018-04-23T14:23:55.549Z,100999.90
2018-04-23T14:26:21.273Z,100978.83
2018-04-23T14:28:47.040Z,101000.27
2018-04-23T14:31:12.784Z,100992.78
2018-04-23T14:33:38.545Z,100994.45
2018-04-23T14:36:04.290Z,100999.73
2018-04-23T14:38:30.047Z,101001.94
2018-04-23T14:40:55.788Z,101000.88
2018-04-23T14:43:21.532Z,101005.96
2018-04-23T14:45:47.303Z,101002.62
2018-04-23T14:48:13.088Z,100999.73
2018-04-23T14:50:38.820Z,101004.81
2018-04-23T14:53:04.620Z,101000.44
2018-04-23T14:55:30.336Z,100998.62
2018-04-23T14:57:56.068Z,101004.83
2018-04-23T15:00:21.820Z,101010.28
2018-04-23T15:02:47.561Z,101009.84
2018-04-23T15:05:13.313Z,101007.81
2018-04-23T15:07:39.077Z,101012.37
2018-04-23T15:10:04.823Z,101018.54
2018-04-23T15:12:30.573Z,101019.08
2018-04-23T15:14:56.319Z,101014.34
2018-04-23T15:17:22.056Z,101021.17
2018-04-23T15:19:47.809Z,101013.84
2018-04-23T15:22:13.556Z,101007.69
2018-04-23T15:24:39.308Z,101018.67
2018-04-23T15:27:05.048Z,101017.91
2018-04-23T15:29:30.788Z,101020.52
2018-04-23T15:31:56.520Z,101026.85
2018-04-23T15:34:22.261Z,101029.45
2018-04-23T15:36:48.000Z,101031.73
2018-04-23T15:39:13.749Z,101043.14
2018-04-23T15:41:39.505Z,101035.16
2018-04-23T15:44:05.267Z,101040.50
2018-04-23T15:46:31.008Z,101040.63
2018-04-23T15:48:56.784Z,101029.77
2018-04-23T15:51:22.534Z,101032.36
2018-04-23T15:53:48.318Z,101033.34
2018-04-23T15:56:14.089Z,101036.41
2018-04-23T15:58:39.856Z,101023.59
2018-04-23T16:01:05.712Z,101023.09
2018-04-23T16:03:31.448Z,101030.60
2018-04-23T16:05:57.206Z,101032.38
2018-04-23T16:08:22.969Z,101041.12
2018-04-23T16:10:48.721Z,101018.23
2018-04-23T16:13:14.463Z,101039.19
2018-04-23T16:15:40.232Z,101036.24
2018-04-23T16:18:05.975Z,101049.29
2018-04-23T16:20:31.716Z,101032.71
2018-04-23T16:22:57.460Z,101037.50
2018-04-23T16:25:23.204Z,101039.16
2018-04-23T16:27:48.960Z,100974.08
2018-04-23T16:30:14.708Z,101032.88
2018-04-23T16:32:40.440Z,101039.27
2018-04-23T16:35:06.196Z,101037.48
2018-04-23T16:37:31.945Z,101036.11
2018-04-23T16:39:57.717Z,101036.05
2018-04-23T16:42:23.454Z,101041.65
2018-04-23T16:44:50.543Z,101035.88
2018-04-23T16:47:14.979Z,101043.35
2018-04-23T16:49:40.715Z,101046.77
2018-04-23T16:52:06.449Z,101051.77
2018-04-23T16:54:32.207Z,101049.38
2018-04-23T16:56:57.940Z,101046.87
2018-04-23T16:59:23.691Z,101062.61
2018-04-23T17:01:49.440Z,101064.16
2018-04-23T17:04:15.188Z,101053.09
2018-04-23T17:06:41.953Z,101055.18
2018-04-23T17:09:08.805Z,101064.63
2018-04-23T17:11:34.576Z,101054.29
2018-04-23T17:14:00.327Z,101053.41
2018-04-23T17:16:26.083Z,101053.06
2018-04-23T17:18:51.841Z,101051.84
2018-04-23T17:21:17.620Z,101064.66
2018-04-23T17:23:43.408Z,101065.75
2018-04-23T17:26:09.270Z,101072.48
2018-04-23T17:28:35.024Z,101064.71
2018-04-23T17:31:00.845Z,101074.98
2018-04-23T17:33:26.572Z,101077.34
2018-04-23T17:35:52.313Z,101075.77
2018-04-23T17:38:18.077Z,101078.66
2018-04-23T17:40:43.824Z,101081.55
2018-04-23T17:43:09.560Z,101077.83
2018-04-23T17:45:36.642Z,101091.28
2018-04-23T17:48:04.287Z,101087.53
2018-04-23T17:50:30.096Z,101087.80
2018-04-23T17:52:55.849Z,101086.25
2018-04-23T17:55:21.597Z,101090.09
2018-04-23T17:57:47.337Z,101093.71
2018-04-23T18:00:13.093Z,101089.73
2018-04-23T18:02:38.831Z,101093.80
2018-04-23T18:05:04.628Z,101091.41
2018-04-23T18:07:30.368Z,101099.97
2018-04-23T18:09:56.257Z,101096.64
2018-04-23T18:12:22.026Z,101094.88
2018-04-23T18:14:47.773Z,101103.11
2018-04-23T18:17:13.512Z,101103.72
2018-04-23T18:19:39.260Z,101103.35
2018-04-23T18:22:05.009Z,101111.82
2018-04-23T18:24:30.749Z,101108.45
2018-04-23T18:26:56.492Z,101103.27
2018-04-23T18:29:22.232Z,101106.15
2018-04-23T18:31:48.008Z,101113.20
2018-04-23T18:34:13.764Z,101109.98
2018-04-23T18:36:39.528Z,101106.52
2018-04-23T18:39:05.280Z,101113.33
2018-04-23T18:41:31.041Z,101118.19
2018-04-23T18:43:56.787Z,101118.73
2018-04-23T18:46:22.538Z,101124.87
2018-04-23T18:48:48.278Z,101119.25
2018-04-23T18:51:14.023Z,101118.03
2018-04-23T18:53:39.765Z,101116.84
2018-04-23T18:56:05.524Z,101123.02
2018-04-23T18:58:31.271Z,101127.20
2018-04-23T19:00:57.024Z,101123.68
2018-04-23T19:03:22.859Z,101133.55
2018-04-23T19:05:48.642Z,101137.11
2018-04-23T19:08:14.374Z,101138.16
2018-04-23T19:10:40.136Z,101136.88
2018-04-23T19:13:05.872Z,101138.48
2018-04-23T19:15:31.637Z,101148.09
2018-04-23T19:17:57.383Z,101145.07
2018-04-23T19:20:23.147Z,101147.97
2018-04-23T19:22:48.887Z,101152.91
2018-04-23T19:25:14.665Z,101159.46
2018-04-23T19:27:40.419Z,101157.85
2018-04-23T19:30:06.169Z,101163.38
2018-04-23T19:32:31.904Z,101167.84
2018-04-23T19:34:57.644Z,101167.88
2018-04-23T19:37:23.396Z,101167.05
2018-04-23T19:39:49.136Z,101163.14
2018-04-23T19:42:14.876Z,101163.70
2018-04-23T19:44:40.618Z,101160.20
2018-04-23T19:47:06.368Z,101158.38
2018-04-23T19:49:32.105Z,101163.11
2018-04-23T19:51:57.852Z,101164.17
2018-04-23T19:54:23.600Z,101158.14
2018-04-23T19:56:49.359Z,101163.40
2018-04-23T19:59:15.160Z,101154.70
2018-04-23T20:01:40.947Z,101154.38
2018-04-23T20:04:06.708Z,101154.92
2018-04-23T20:06:32.521Z,101148.23
2018-04-23T20:08:58.266Z,101161.66
2018-04-23T20:11:24.022Z,101159.44
2018-04-23T20:13:49.787Z,101164.38
2018-04-23T20:16:15.568Z,101164.72
2018-04-23T20:18:41.312Z,101150.69
2018-04-23T20:21:07.068Z,101164.44
2018-04-23T20:23:32.836Z,101163.16
2018-04-23T20:25:58.585Z,101156.13
2018-04-23T20:28:24.304Z,101150.92
2018-04-23T20:30:50.057Z,101144.69
2018-04-23T20:33:15.887Z,101147.89
2018-04-23T20:35:41.532Z,101156.72
2018-04-23T20:38:07.294Z,101158.81
2018-04-23T20:40:33.053Z,101152.94
2018-04-23T20:45:40.688Z,101157.41
2018-04-23T20:48:06.441Z,101154.41
2018-04-23T20:50:32.178Z,101151.74
2018-04-23T20:52:57.927Z,101155.31
2018-04-23T20:55:23.676Z,101160.98
2018-04-23T20:57:49.421Z,101153.55
2018-04-23T21:00:15.151Z,101162.00
2018-04-23T21:02:40.905Z,101160.61
2018-04-23T21:05:07.453Z,101167.72
2018-04-23T21:07:33.208Z,101163.48
2018-04-23T21:09:58.961Z,101164.42
2018-04-23T21:12:24.708Z,101160.70
2018-04-23T21:14:50.443Z,101164.94
2018-04-23T21:17:16.204Z,101171.52
2018-04-23T21:19:41.956Z,101168.55
2018-04-23T21:22:07.717Z,101158.90
2018-04-23T21:24:33.458Z,101166.45
2018-04-23T21:26:59.224Z,101160.34
2018-04-23T21:29:24.961Z,101167.39
2018-04-23T21:31:50.713Z,101163.13
2018-04-23T21:34:16.460Z,101166.19
2018-04-23T21:36:42.236Z,101164.89
2018-04-23T21:39:07.981Z,101169.70
2018-04-23T21:41:34.684Z,101161.84
2018-04-23T21:44:00.516Z,101167.19
2018-04-23T21:46:26.772Z,101162.34
2018-04-23T21:48:52.529Z,101161.55
2018-04-23T21:51:18.276Z,101158.08
2018-04-23T21:53:44.137Z,101162.51
2018-04-23T21:56:09.916Z,101153.28
2018-04-23T21:58:35.671Z,101149.85
2018-04-23T22:01:02.017Z,101152.88
2018-04-23T22:03:27.782Z,101153.70
2018-04-23T22:05:53.517Z,101155.48
2018-04-23T22:08:19.267Z,101159.41
2018-04-23T22:10:44.996Z,101156.72
2018-04-23T22:13:10.749Z,101164.82
2018-04-23T22:15:36.506Z,101164.87
2018-04-23T22:18:02.336Z,101164.44
2018-04-23T22:20:28.022Z,101163.56
2018-04-23T22:22:53.777Z,101163.07
2018-04-23T22:25:19.517Z,101159.20
2018-04-23T22:27:45.296Z,101164.95
2018-04-23T22:30:11.043Z,101162.75
2018-04-23T22:32:36.792Z,101158.61
2018-04-23T22:35:02.532Z,101156.35
2018-04-23T22:37:28.279Z,101158.09
2018-04-23T22:39:54.007Z,101154.48
2018-04-23T22:42:19.860Z,101163.27
2018-04-23T22:44:45.593Z,101160.95
2018-04-23T22:47:11.349Z,101154.82
2018-04-23T22:49:37.092Z,101156.09
2018-04-23T22:52:02.828Z,101162.19
2018-04-23T22:54:28.582Z,101159.55
2018-04-23T22:56:54.336Z,101150.23
2018-04-23T22:59:20.471Z,101157.16
2018-04-23T23:01:46.301Z,101147.39
2018-04-23T23:04:12.284Z,101146.14
2018-04-23T23:06:38.032Z,101148.69
2018-04-23T23:09:04.785Z,101146.48
2018-04-23T23:11:30.540Z,101138.06
2018-04-23T23:13:56.309Z,101134.59
2018-04-23T23:16:22.044Z,101132.33
2018-04-23T23:18:47.801Z,101130.05
2018-04-23T23:21:13.532Z,101127.08
2018-04-23T23:23:39.275Z,101118.72
2018-04-23T23:26:05.049Z,101108.22
2018-04-23T23:28:30.832Z,101100.72
2018-04-23T23:30:56.580Z,101100.70
2018-04-23T23:33:22.333Z,101088.45
2018-04-23T23:35:48.074Z,101095.95
2018-04-23T23:38:13.818Z,101083.14
2018-04-23T23:40:39.561Z,101087.06
2018-04-23T23:43:05.312Z,101087.91
2018-04-23T23:45:31.058Z,101076.42
2018-04-23T23:47:56.805Z,101082.15
2018-04-23T23:50:22.560Z,101080.34
2018-04-23T23:52:48.300Z,101081.63
2018-04-23T23:55:14.069Z,101081.42
2018-04-23T23:57:39.801Z,101082.70
